createdAt,value
2023-01-01T00:02:24.630Z,95063.00
2023-01-01T00:04:51.555Z,95057.94
2023-01-01T00:07:18.272Z,95063.16
2023-01-01T00:10:14.088Z,95051.44
2023-01-01T00:12:40.823Z,95061.59
2023-01-01T00:15:08.188Z,95065.28
2023-01-01T00:17:34.949Z,95060.78
2023-01-01T00:20:01.697Z,95053.06
2023-01-01T00:22:53.256Z,95066.25
2023-01-01T00:25:15.295Z,95060.56
2023-01-01T00:27:42.799Z,95068.25
2023-01-01T00:30:11.254Z,95057.84
2023-01-01T00:32:38.309Z,95066.47
2023-01-01T00:35:05.779Z,95052.28
2023-01-01T00:37:32.817Z,95071.00
2023-01-01T00:39:59.643Z,95073.59
2023-01-01T00:42:26.496Z,95070.50
2023-01-01T00:44:53.264Z,95076.19
2023-01-01T00:47:20.025Z,95063.06
2023-01-01T00:49:46.818Z,95054.66
2023-01-01T00:52:13.820Z,95076.44
2023-01-01T00:54:40.615Z,95077.50
2023-01-01T00:57:07.365Z,95071.13
2023-01-01T00:59:34.165Z,95055.16
2023-01-01T01:02:01.383Z,95060.84
2023-01-01T01:04:28.362Z,95063.53
2023-01-01T01:06:55.254Z,95053.03
2023-01-01T01:09:22.040Z,95055.03
2023-01-01T01:11:50.330Z,95059.06
2023-01-01T01:14:17.096Z,95062.72
2023-01-01T01:16:43.895Z,95062.72
2023-01-01T01:19:15.283Z,95050.44
2023-01-01T01:21:44.296Z,95048.78
2023-01-01T01:24:11.346Z,95049.00
2023-01-01T01:26:38.082Z,95068.16
2023-01-01T01:29:05.254Z,95066.88
2023-01-01T01:31:34.635Z,95077.44
2023-01-01T01:34:02.333Z,95076.94
2023-01-01T01:36:29.667Z,95075.06
2023-01-01T01:38:57.903Z,95082.97
2023-01-01T01:41:28.986Z,95084.06
2023-01-01T01:44:27.617Z,95073.63
2023-01-01T01:46:54.461Z,95087.38
2023-01-01T01:49:30.328Z,95076.25
2023-01-01T01:51:58.163Z,95081.81
2023-01-01T01:54:28.113Z,95076.22
2023-01-01T01:57:02.800Z,95082.63
2023-01-01T01:59:39.276Z,95088.78
2023-01-01T02:02:17.057Z,95082.84
2023-01-01T02:04:44.381Z,95067.97
2023-01-01T02:07:14.396Z,95079.66
2023-01-01T02:09:41.791Z,95078.03
2023-01-01T02:12:08.686Z,95084.75
2023-01-01T02:14:35.552Z,95075.28
2023-01-01T02:17:20.604Z,95081.69
2023-01-01T02:20:02.397Z,95083.34
2023-01-01T02:22:36.166Z,95077.66
2023-01-01T02:25:21.059Z,95086.78
2023-01-01T02:28:04.130Z,95078.84
2023-01-01T02:30:32.098Z,95069.03
2023-01-01T02:33:12.317Z,95082.16
2023-01-01T02:35:44.419Z,95090.09
2023-01-01T02:38:30.706Z,95081.78
2023-01-01T02:41:03.177Z,95068.91
2023-01-01T02:43:29.916Z,95076.97
2023-01-01T02:45:57.304Z,95060.38
2023-01-01T02:48:47.896Z,95077.19
2023-01-01T02:51:14.541Z,95115.88
2023-01-01T02:54:08.882Z,95091.59
2023-01-01T02:56:48.626Z,95085.44
2023-01-01T03:00:02.565Z,95079.31
2023-01-01T03:02:57.163Z,95087.34
2023-01-01T03:06:22.373Z,95081.91
2023-01-01T03:09:28.848Z,95090.19
2023-01-01T03:12:43.875Z,95076.56
2023-01-01T03:15:24.598Z,95079.06
2023-01-01T03:18:14.147Z,95093.84
2023-01-01T03:20:45.901Z,95092.41
2023-01-01T03:23:19.285Z,95087.19
2023-01-01T03:25:50.977Z,95105.91
2023-01-01T03:28:26.504Z,95088.28
2023-01-01T03:30:54.099Z,95091.34
2023-01-01T03:33:33.182Z,95102.09
2023-01-01T03:36:25.320Z,95099.81
2023-01-01T03:38:57.199Z,95097.78
2023-01-01T03:41:40.756Z,95100.75
2023-01-01T03:44:15.543Z,95105.13
2023-01-01T03:46:42.682Z,95093.03
2023-01-01T03:49:11.989Z,95104.63
2023-01-01T03:51:47.457Z,95100.28
2023-01-01T03:54:58.773Z,95095.06
2023-01-01T03:57:50.160Z,95094.56
2023-01-01T04:00:23.842Z,95064.66
2023-01-01T04:03:08.504Z,95092.78
2023-01-01T04:05:41.537Z,95089.25
2023-01-01T04:08:08.847Z,95087.72
2023-01-01T04:10:41.717Z,95088.44
2023-01-01T04:13:08.436Z,95094.66
2023-01-01T04:15:36.199Z,95092.19
2023-01-01T04:18:04.043Z,95100.72
2023-01-01T04:20:31.696Z,95093.13
2023-01-01T04:23:02.565Z,95111.13
2023-01-01T04:25:29.811Z,95108.84
2023-01-01T04:27:58.294Z,95105.88
2023-01-01T04:30:25.709Z,95098.41
2023-01-01T04:32:52.696Z,95089.28
2023-01-01T04:35:19.618Z,95107.97
2023-01-01T04:37:46.423Z,95117.09
2023-01-01T04:40:14.295Z,95116.94
2023-01-01T04:42:41.946Z,95122.75
2023-01-01T04:45:09.473Z,95110.81
2023-01-01T04:47:36.295Z,95117.88
2023-01-01T04:50:03.401Z,95115.03
2023-01-01T04:52:30.138Z,95093.28
2023-01-01T04:54:56.891Z,95103.47
2023-01-01T04:57:23.670Z,95106.25
2023-01-01T04:59:50.578Z,95112.69
2023-01-01T05:02:17.395Z,95110.53
2023-01-01T05:04:44.312Z,95110.75
2023-01-01T05:07:11.107Z,95109.31
2023-01-01T05:09:37.875Z,95109.31
2023-01-01T05:12:04.826Z,95115.22
2023-01-01T05:14:31.594Z,95113.78
2023-01-01T05:16:58.377Z,95127.00
2023-01-01T05:19:25.212Z,95130.75
2023-01-01T05:21:51.978Z,95124.13
2023-01-01T05:24:18.746Z,95114.88
2023-01-01T05:26:46.685Z,95119.16
2023-01-01T05:29:17.071Z,95143.00
2023-01-01T05:31:45.652Z,95138.25
2023-01-01T05:34:13.200Z,95146.78
2023-01-01T05:36:40.129Z,95148.44
2023-01-01T05:39:09.446Z,95147.00
2023-01-01T05:41:36.867Z,95144.28
2023-01-01T05:44:06.601Z,95140.38
2023-01-01T05:46:33.853Z,95141.81
2023-01-01T05:49:01.594Z,95142.28
2023-01-01T05:53:58.375Z,95155.72
2023-01-01T05:56:26.720Z,95151.34
2023-01-01T05:58:54.345Z,95154.28
2023-01-01T06:01:30.477Z,95153.38
2023-01-01T06:03:59.558Z,95155.09
2023-01-01T06:06:30.724Z,95161.34
2023-01-01T06:09:04.228Z,95167.50
2023-01-01T06:11:31.712Z,95164.06
2023-01-01T06:14:00.384Z,95175.16
2023-01-01T06:16:29.413Z,95168.66
2023-01-01T06:18:56.313Z,95172.19
2023-01-01T06:21:25.620Z,95174.25
2023-01-01T06:23:52.910Z,95175.94
2023-01-01T06:26:28.735Z,95176.84
2023-01-01T06:28:56.579Z,95174.06
2023-01-01T06:31:24.473Z,95182.19
2023-01-01T06:33:51.520Z,95181.31
2023-01-01T06:36:22.107Z,95184.16
2023-01-01T06:38:52.622Z,95179.88
2023-01-01T06:41:23.276Z,95179.88
2023-01-01T06:43:50.847Z,95181.56
2023-01-01T06:46:27.536Z,95178.66
2023-01-01T06:48:57.874Z,95179.38
2023-01-01T06:51:30.971Z,95178.44
2023-01-01T06:54:02.343Z,95183.13
2023-01-01T06:56:30.218Z,95185.72
2023-01-01T06:58:57.539Z,95183.84
2023-01-01T07:01:29.915Z,95190.06
2023-01-01T07:04:03.544Z,95188.41
2023-01-01T07:06:32.731Z,95200.34
2023-01-01T07:08:59.624Z,95193.94
2023-01-01T07:11:27.192Z,95207.50
2023-01-01T07:13:54.590Z,95204.09
2023-01-01T07:16:23.006Z,95206.69
2023-01-01T07:18:50.891Z,95205.78
2023-01-01T07:21:45.280Z,95212.84
2023-01-01T07:24:14.604Z,95204.72
2023-01-01T07:26:41.684Z,95214.28
2023-01-01T07:29:09.034Z,95214.91
2023-01-01T07:31:41.500Z,95216.03
2023-01-01T07:34:13.524Z,95228.06
2023-01-01T07:36:41.300Z,95221.25
2023-01-01T07:39:08.356Z,95228.06
2023-01-01T07:41:35.215Z,95215.84
2023-01-01T07:44:02.183Z,95222.16
2023-01-01T07:46:29.233Z,95215.50
2023-01-01T07:48:57.132Z,95234.75
2023-01-01T07:51:24.011Z,95221.03
2023-01-01T07:53:50.818Z,95231.00
2023-01-01T07:56:17.932Z,95238.06
2023-01-01T07:58:44.732Z,95225.38
2023-01-01T08:01:15.049Z,95215.00
2023-01-01T08:03:42.157Z,95203.38
2023-01-01T08:06:12.065Z,95216.75
2023-01-01T08:08:39.525Z,95223.53
2023-01-01T08:11:06.585Z,95212.41
2023-01-01T08:13:33.420Z,95218.00
2023-01-01T08:16:00.463Z,95238.88
2023-01-01T08:18:27.451Z,95238.59
2023-01-01T08:20:54.430Z,95221.22
2023-01-01T08:23:21.285Z,95231.38
2023-01-01T08:25:48.114Z,95244.69
2023-01-01T08:28:14.917Z,95234.31
2023-01-01T08:30:41.735Z,95241.88
2023-01-01T08:33:08.521Z,95236.88
2023-01-01T08:35:40.928Z,95246.13
2023-01-01T08:38:10.199Z,95229.38
2023-01-01T08:40:37.702Z,95227.41
2023-01-01T08:43:04.509Z,95235.47
2023-01-01T08:45:31.254Z,95243.56
2023-01-01T08:47:58.057Z,95235.78
2023-01-01T08:50:24.873Z,95241.06
2023-01-01T08:52:51.798Z,95244.84
2023-01-01T08:55:20.062Z,95239.81
2023-01-01T08:57:47.048Z,95212.28
2023-01-01T09:00:14.465Z,95229.88
2023-01-01T09:02:41.275Z,95211.56
2023-01-01T09:05:09.029Z,95227.41
2023-01-01T09:07:35.929Z,95228.72
2023-01-01T09:10:02.727Z,95234.75
2023-01-01T09:12:30.207Z,95247.59
2023-01-01T09:14:57.032Z,95246.06
2023-01-01T09:17:23.788Z,95236.63
2023-01-01T09:19:50.651Z,95246.13
2023-01-01T09:22:17.435Z,95246.03
2023-01-01T09:24:44.164Z,95254.00
2023-01-01T09:27:10.975Z,95257.09
2023-01-01T09:29:37.756Z,95259.59
2023-01-01T09:32:04.933Z,95252.88
2023-01-01T09:34:31.774Z,95260.13
2023-01-01T09:36:58.563Z,95272.81
2023-01-01T09:39:25.289Z,95263.19
2023-01-01T09:41:55.228Z,95262.13
2023-01-01T09:44:45.692Z,95268.16
2023-01-01T09:47:41.672Z,95257.34
2023-01-01T09:50:18.787Z,95253.97
2023-01-01T09:53:03.701Z,95251.03
2023-01-01T09:55:53.179Z,95243.38
2023-01-01T09:58:26.657Z,95227.22
2023-01-01T10:01:00.692Z,95230.59
2023-01-01T10:03:49.736Z,95229.03
2023-01-01T10:06:24.722Z,95229.84
2023-01-01T10:09:17.507Z,95234.47
2023-01-01T10:12:26.171Z,95230.41
2023-01-01T10:15:03.726Z,95226.38
2023-01-01T10:17:47.235Z,95230.94
2023-01-01T10:20:47.148Z,95215.56
2023-01-01T10:23:29.152Z,95218.16
2023-01-01T10:25:58.633Z,95206.88
2023-01-01T10:28:42.876Z,95216.78
2023-01-01T10:31:33.264Z,95220.09
2023-01-01T10:34:13.660Z,95215.63
2023-01-01T10:36:40.539Z,95193.75
2023-01-01T10:39:07.769Z,95198.94
2023-01-01T10:41:34.628Z,95193.50
2023-01-01T10:44:01.619Z,95191.34
2023-01-01T10:46:32.189Z,95186.13
2023-01-01T10:49:12.522Z,95185.84
2023-01-01T10:51:48.582Z,95185.41
2023-01-01T10:54:37.845Z,95173.78
2023-01-01T10:57:37.909Z,95188.56
2023-01-01T11:00:22.305Z,95186.16
2023-01-01T11:03:13.997Z,95172.16
2023-01-01T11:05:40.871Z,95165.47
2023-01-01T11:08:19.332Z,95166.50
2023-01-01T11:10:52.200Z,95168.66
2023-01-01T11:13:20.699Z,95178.91
2023-01-01T11:15:47.982Z,95176.00
2023-01-01T11:18:38.192Z,95177.13
2023-01-01T11:21:07.000Z,95172.34
2023-01-01T11:23:39.859Z,95172.47
2023-01-01T11:26:21.974Z,95165.03
2023-01-01T11:29:28.688Z,95167.81
2023-01-01T11:31:58.204Z,95158.38
2023-01-01T11:34:38.675Z,95151.09
2023-01-01T11:37:25.208Z,95148.75
2023-01-01T11:39:55.135Z,95144.09
2023-01-01T11:42:29.354Z,95121.38
2023-01-01T11:45:21.248Z,95139.56
2023-01-01T11:47:56.793Z,95130.44
2023-01-01T11:50:34.047Z,95136.75
2023-01-01T11:53:22.197Z,95137.03
2023-01-01T11:56:15.165Z,95133.41
2023-01-01T11:58:58.316Z,95137.88
2023-01-01T12:01:52.908Z,95123.78
2023-01-01T12:04:25.439Z,95126.84
2023-01-01T12:07:05.548Z,95112.28
2023-01-01T12:09:53.404Z,95120.44
2023-01-01T12:12:35.997Z,95113.16
2023-01-01T12:15:19.088Z,95112.81
2023-01-01T12:18:13.896Z,95111.72
2023-01-01T12:21:19.859Z,95108.09
2023-01-01T12:23:47.060Z,95103.72
2023-01-01T12:26:24.265Z,95113.63
2023-01-01T12:29:28.554Z,95100.75
2023-01-01T12:32:05.544Z,95100.19
2023-01-01T12:34:53.360Z,95100.38
2023-01-01T12:37:25.706Z,95094.91
2023-01-01T12:40:42.851Z,95083.56
2023-01-01T12:43:41.383Z,95079.66
2023-01-01T12:46:56.202Z,95078.28
2023-01-01T12:49:47.524Z,95074.50
2023-01-01T12:52:53.503Z,95074.03
2023-01-01T12:55:51.016Z,95076.03
2023-01-01T12:59:05.446Z,95072.13
2023-01-01T13:01:35.339Z,95062.78
2023-01-01T13:04:18.548Z,95057.56
2023-01-01T13:07:04.476Z,95059.69
2023-01-01T13:09:36.717Z,95054.56
2023-01-01T13:12:15.765Z,95050.91
2023-01-01T13:14:49.675Z,95060.75
2023-01-01T13:17:26.879Z,95054.56
2023-01-01T13:20:21.414Z,95052.53
2023-01-01T13:22:48.629Z,95046.22
2023-01-01T13:25:16.159Z,95052.31
2023-01-01T13:27:58.238Z,95061.03
2023-01-01T13:30:37.523Z,95054.81
2023-01-01T13:33:31.271Z,95057.94
2023-01-01T13:36:13.095Z,95045.03
2023-01-01T13:38:54.758Z,95046.63
2023-01-01T13:41:27.740Z,95043.06
2023-01-01T13:44:17.888Z,95035.13
2023-01-01T13:46:44.624Z,95045.41
2023-01-01T13:49:52.124Z,95041.25
2023-01-01T13:52:42.913Z,95041.84
2023-01-01T13:55:56.060Z,95039.56
2023-01-01T13:58:44.587Z,95036.75
2023-01-01T14:01:29.545Z,95018.25
2023-01-01T14:03:58.505Z,95025.53
2023-01-01T14:06:42.508Z,95015.47
2023-01-01T14:09:15.468Z,95014.03
2023-01-01T14:11:42.191Z,95018.56
2023-01-01T14:14:25.086Z,95029.56
2023-01-01T14:17:00.183Z,95038.19
2023-01-01T14:19:28.265Z,95044.19
2023-01-01T14:21:55.793Z,95033.28
2023-01-01T14:24:25.076Z,95038.72
2023-01-01T14:26:52.782Z,95044.06
2023-01-01T14:29:31.221Z,95044.38
2023-01-01T14:32:01.266Z,95049.16
2023-01-01T14:34:33.388Z,95048.81
2023-01-01T14:37:03.734Z,95051.41
2023-01-01T14:39:35.595Z,95040.09
2023-01-01T14:42:09.423Z,95031.50
2023-01-01T14:44:49.555Z,95045.03
2023-01-01T14:47:36.583Z,95042.84
2023-01-01T14:50:13.463Z,95058.78
2023-01-01T14:52:40.452Z,95052.91
2023-01-01T14:55:08.559Z,95052.97
2023-01-01T14:57:37.511Z,95066.41
2023-01-01T15:00:26.697Z,95068.94
2023-01-01T15:02:53.644Z,95064.94
2023-01-01T15:05:23.350Z,95063.66
2023-01-01T15:08:02.704Z,95068.41
2023-01-01T15:10:35.183Z,95065.53
2023-01-01T15:13:06.682Z,95063.03
2023-01-01T15:15:46.542Z,95066.44
2023-01-01T15:18:46.204Z,95054.47
2023-01-01T15:21:31.156Z,95078.28
2023-01-01T15:24:23.961Z,95076.28
2023-01-01T15:26:54.099Z,95074.69
2023-01-01T15:29:34.321Z,95064.72
2023-01-01T15:32:14.071Z,95076.16
2023-01-01T15:34:50.193Z,95073.41
2023-01-01T15:37:42.874Z,95075.44
2023-01-01T15:40:15.781Z,95077.75
2023-01-01T15:42:57.428Z,95076.13
2023-01-01T15:45:40.852Z,95088.63
2023-01-01T15:48:10.444Z,95075.28
2023-01-01T15:50:50.385Z,95069.50
2023-01-01T15:53:27.626Z,95069.50
2023-01-01T15:56:09.519Z,95076.03
2023-01-01T15:58:42.289Z,95078.97
2023-01-01T16:01:15.192Z,95079.94
2023-01-01T16:03:44.799Z,95073.59
2023-01-01T16:06:21.830Z,95078.78
2023-01-01T16:08:48.945Z,95081.69
2023-01-01T16:11:15.859Z,95076.19
2023-01-01T16:13:42.666Z,95084.88
2023-01-01T16:16:39.818Z,95075.91
2023-01-01T16:19:15.123Z,95080.94
2023-01-01T16:21:41.843Z,95071.84
2023-01-01T16:24:14.494Z,95078.09
2023-01-01T16:26:45.648Z,95074.72
2023-01-01T16:29:12.499Z,95073.53
2023-01-01T16:31:40.208Z,95067.59
2023-01-01T16:34:07.439Z,95083.66
2023-01-01T16:36:34.285Z,95078.72
2023-01-01T16:39:01.404Z,95070.78
2023-01-01T16:41:31.340Z,95075.03
2023-01-01T16:43:58.170Z,95068.75
2023-01-01T16:46:26.695Z,95057.19
2023-01-01T16:48:54.235Z,95078.19
2023-01-01T16:51:28.574Z,95067.63
2023-01-01T16:53:55.954Z,95067.47
2023-01-01T16:56:22.812Z,95054.94
2023-01-01T16:58:52.389Z,95059.03
2023-01-01T17:01:23.527Z,95060.97
2023-01-01T17:03:51.125Z,95053.69
2023-01-01T17:06:19.029Z,95046.75
2023-01-01T17:08:45.771Z,95056.16
2023-01-01T17:11:16.891Z,95053.84
2023-01-01T17:13:47.121Z,95057.16
2023-01-01T17:16:21.203Z,95038.81
2023-01-01T17:21:40.068Z,95038.63
2023-01-01T17:24:07.131Z,95045.81
2023-01-01T17:26:34.014Z,95041.69
2023-01-01T17:29:03.044Z,95038.13
2023-01-01T17:31:30.273Z,95039.22
2023-01-01T17:33:58.206Z,95043.09
2023-01-01T17:36:28.450Z,95047.53
2023-01-01T17:38:55.436Z,95050.56
2023-01-01T17:41:23.462Z,95050.88
2023-01-01T17:43:51.996Z,95060.53
2023-01-01T17:46:22.288Z,95057.34
2023-01-01T17:48:49.780Z,95058.63
2023-01-01T17:51:18.605Z,95046.66
2023-01-01T17:53:45.916Z,95056.13
2023-01-01T17:56:15.691Z,95058.91
2023-01-01T17:58:44.670Z,95070.16
2023-01-01T18:01:11.431Z,95064.53
2023-01-01T18:03:40.369Z,95062.44
2023-01-01T18:06:08.066Z,95066.81
2023-01-01T18:08:34.872Z,95058.84
2023-01-01T18:11:01.639Z,95062.44
2023-01-01T18:13:28.483Z,95064.16
2023-01-01T18:16:03.721Z,95068.97
2023-01-01T18:18:33.531Z,95063.19
2023-01-01T18:21:19.539Z,95077.47
2023-01-01T18:23:46.940Z,95057.69
2023-01-01T18:26:13.693Z,95088.94
2023-01-01T18:28:40.490Z,95055.25
2023-01-01T18:31:10.492Z,95082.91
2023-01-01T18:36:12.167Z,95064.22
2023-01-01T18:38:40.217Z,95059.25
2023-01-01T18:41:49.177Z,95061.16
2023-01-01T18:44:26.815Z,95055.13
2023-01-01T18:47:04.176Z,95049.91
2023-01-01T18:49:32.371Z,95062.91
2023-01-01T18:52:08.147Z,95062.38
2023-01-01T18:54:35.573Z,95075.72
2023-01-01T18:57:28.816Z,95061.41
2023-01-01T18:59:58.857Z,95063.44
2023-01-01T19:02:39.426Z,95074.28
2023-01-01T19:05:34.692Z,95056.63
2023-01-01T19:08:07.253Z,95065.38
2023-01-01T19:10:55.482Z,95058.78
2023-01-01T19:13:24.818Z,95066.19
2023-01-01T19:16:11.485Z,95067.00
2023-01-01T19:18:44.530Z,95056.25
2023-01-01T19:21:11.213Z,95072.03
2023-01-01T19:23:50.293Z,95062.69
2023-01-01T19:26:23.304Z,95072.38
2023-01-01T19:28:53.506Z,95055.56
2023-01-01T19:31:21.651Z,95064.28
2023-01-01T19:33:49.110Z,95070.91
2023-01-01T19:36:16.040Z,95054.38
2023-01-01T19:38:44.174Z,95066.94
2023-01-01T19:41:11.496Z,95059.50
2023-01-01T19:43:38.931Z,95060.56
2023-01-01T19:46:05.884Z,95057.75
2023-01-01T19:48:32.797Z,95047.34
2023-01-01T19:50:59.636Z,95059.25
2023-01-01T19:53:26.423Z,95054.72
2023-01-01T19:55:53.149Z,95058.72
2023-01-01T19:58:20.110Z,95060.88
2023-01-01T20:00:46.908Z,95046.94
2023-01-01T20:06:00.598Z,95041.72
2023-01-01T20:08:28.666Z,95038.03
2023-01-01T20:10:55.472Z,95046.94
2023-01-01T20:13:22.394Z,95034.88
2023-01-01T20:15:49.197Z,95025.88
2023-01-01T20:18:15.952Z,95011.69
2023-01-01T20:21:02.751Z,95020.91
2023-01-01T20:23:29.654Z,95019.00
2023-01-01T20:25:56.400Z,95023.41
2023-01-01T20:28:41.604Z,95027.91
2023-01-01T20:31:08.576Z,95022.72
2023-01-01T20:33:35.391Z,95028.06
2023-01-01T20:36:20.598Z,95016.47
2023-01-01T20:38:47.326Z,95034.59
2023-01-01T20:41:26.057Z,95023.88
2023-01-01T20:43:59.756Z,95030.94
2023-01-01T20:46:26.575Z,95029.78
2023-01-01T20:48:53.927Z,95037.13
2023-01-01T20:51:20.714Z,95018.56
2023-01-01T20:53:47.639Z,95025.06
2023-01-01T20:56:14.379Z,95030.78
2023-01-01T20:58:47.655Z,95028.16
2023-01-01T21:01:16.149Z,95024.72
2023-01-01T21:03:42.950Z,95020.59
2023-01-01T21:06:09.746Z,95018.47
2023-01-01T21:08:36.510Z,95023.31
2023-01-01T21:11:03.481Z,95021.06
2023-01-01T21:13:30.388Z,95015.97
2023-01-01T21:16:15.563Z,95016.09
2023-01-01T21:18:42.701Z,95013.38
2023-01-01T21:21:22.565Z,95009.25
2023-01-01T21:23:51.294Z,95000.50
2023-01-01T21:26:27.525Z,94999.31
2023-01-01T21:28:55.090Z,94997.91
2023-01-01T21:31:22.072Z,95006.66
2023-01-01T21:33:48.824Z,94990.31
2023-01-01T21:36:20.188Z,95001.44
2023-01-01T21:38:49.237Z,94996.84
2023-01-01T21:41:25.290Z,95004.41
2023-01-01T21:43:58.373Z,95007.63
2023-01-01T21:46:25.127Z,95026.81
2023-01-01T21:49:15.513Z,95022.19
2023-01-01T21:51:58.675Z,95022.78
2023-01-01T21:54:33.147Z,95018.03
2023-01-01T21:57:18.968Z,95020.75
2023-01-01T21:59:50.717Z,95026.78
2023-01-01T22:02:37.874Z,95022.44
2023-01-01T22:05:30.308Z,95018.75
2023-01-01T22:07:59.159Z,95027.25
2023-01-01T22:10:35.841Z,95028.94
2023-01-01T22:13:03.220Z,95030.56
2023-01-01T22:15:41.132Z,95030.56
2023-01-01T22:18:07.751Z,95037.44
2023-01-01T22:20:39.294Z,95035.78
2023-01-01T22:23:40.375Z,95029.41
2023-01-01T22:26:29.149Z,95026.91
2023-01-01T22:29:20.877Z,95020.63
2023-01-01T22:31:49.493Z,95015.44
2023-01-01T22:34:22.574Z,95007.41
2023-01-01T22:36:49.296Z,94990.81
2023-01-01T22:39:29.741Z,95011.03
2023-01-01T22:41:56.992Z,95004.81
2023-01-01T22:44:26.103Z,95005.97
2023-01-01T22:46:53.426Z,95005.97
2023-01-01T22:49:32.681Z,94998.63
2023-01-01T22:51:59.936Z,95011.28
2023-01-01T22:54:26.679Z,95000.75
2023-01-01T22:56:53.445Z,95014.47
2023-01-01T22:59:20.201Z,95015.19
2023-01-01T23:01:47.080Z,95009.16
2023-01-01T23:04:13.974Z,95011.88
2023-01-01T23:06:40.788Z,95019.69
2023-01-01T23:09:08.608Z,95001.44
2023-01-01T23:11:35.404Z,95005.72
2023-01-01T23:14:21.010Z,95019.91
2023-01-01T23:16:47.729Z,95013.06
2023-01-01T23:19:14.469Z,95014.94
2023-01-01T23:21:45.025Z,95011.63
2023-01-01T23:24:17.309Z,95007.00
2023-01-01T23:26:44.615Z,95006.66
2023-01-01T23:29:12.513Z,95005.00
2023-01-01T23:31:40.405Z,95007.38
2023-01-01T23:34:07.799Z,95003.84
2023-01-01T23:36:35.058Z,95002.53
2023-01-01T23:39:01.817Z,95004.16
2023-01-01T23:41:28.574Z,94995.06
2023-01-01T23:43:55.313Z,94976.63
2023-01-01T23:46:22.335Z,94997.53
2023-01-01T23:48:49.801Z,94981.38
2023-01-01T23:51:17.664Z,94991.16
2023-01-01T23:53:44.867Z,94978.16
2023-01-01T23:56:12.273Z,94982.41
2023-01-01T23:58:39.000Z,94984.44
